createdAt,value
2023-02-21T00:02:25.289Z,8.06
2023-02-21T00:07:27.465Z,8.07
2023-02-21T00:12:31.483Z,7.95
2023-02-21T00:17:38.037Z,8.09
2023-02-21T00:22:40.072Z,7.99
2023-02-21T00:27:42.014Z,8.03
2023-02-21T00:32:50.467Z,7.97
2023-02-21T00:37:55.530Z,7.95
2023-02-21T00:42:58.002Z,7.89
2023-02-21T00:48:02.482Z,8.04
2023-02-21T00:53:07.043Z,8.02
2023-02-21T00:58:09.374Z,7.85
2023-02-21T01:03:15.957Z,7.86
2023-02-21T01:08:18.475Z,7.93
2023-02-21T01:13:21.390Z,7.94
2023-02-21T01:18:29.145Z,7.96
2023-02-21T01:23:31.119Z,7.83
2023-02-21T01:28:33.207Z,7.88
2023-02-21T01:33:41.171Z,7.96
2023-02-21T01:38:43.557Z,7.95
2023-02-21T01:43:45.535Z,7.94
2023-02-21T01:48:52.439Z,7.80
2023-02-21T01:53:56.548Z,7.95
2023-02-21T01:59:01.308Z,7.97
2023-02-21T02:04:06.884Z,7.90
2023-02-21T02:09:09.246Z,7.92
2023-02-21T02:14:13.736Z,7.92
2023-02-21T02:19:20.524Z,7.90
2023-02-21T02:24:25.221Z,7.85
2023-02-21T02:29:28.621Z,7.82
2023-02-21T02:34:35.783Z,7.80
2023-02-21T02:39:35.423Z,7.74
2023-02-21T02:44:28.390Z,7.81
2023-02-21T02:49:20.946Z,7.89
2023-02-21T02:54:11.251Z,7.82
2023-02-21T02:59:07.320Z,7.80
2023-02-21T03:04:10.269Z,7.73
2023-02-21T03:09:07.070Z,7.74
2023-02-21T03:14:02.271Z,7.72
2023-02-21T03:18:57.647Z,7.70
2023-02-21T03:23:49.688Z,7.78
2023-02-21T03:28:40.475Z,7.89
2023-02-21T03:33:44.096Z,7.72
2023-02-21T03:38:36.818Z,7.85
2023-02-21T03:43:29.205Z,7.79
2023-02-21T03:48:31.936Z,7.83
2023-02-21T03:53:54.156Z,7.85
2023-02-21T03:58:50.778Z,7.91
2023-02-21T04:03:40.703Z,7.89
2023-02-21T04:08:31.306Z,7.84
2023-02-21T04:13:25.218Z,7.83
2023-02-21T04:18:20.522Z,7.94
2023-02-21T04:23:23.276Z,7.93
2023-02-21T04:28:13.396Z,7.98
2023-02-21T04:33:07.580Z,7.96
2023-02-21T04:37:58.170Z,7.97
2023-02-21T04:42:48.480Z,8.01
2023-02-21T04:47:38.324Z,7.94
2023-02-21T04:52:32.850Z,8.05
2023-02-21T04:57:22.553Z,7.93
2023-02-21T05:02:12.707Z,7.87
2023-02-21T05:07:02.628Z,7.96
2023-02-21T05:11:58.493Z,8.00
2023-02-21T05:16:53.216Z,8.10
2023-02-21T05:21:42.961Z,8.10
2023-02-21T05:26:37.359Z,8.01
2023-02-21T05:31:30.059Z,8.05
2023-02-21T05:36:20.788Z,8.06
2023-02-21T05:41:10.667Z,8.07
2023-02-21T05:46:01.837Z,8.12
2023-02-21T05:50:54.477Z,8.12
2023-02-21T05:55:44.332Z,8.13
2023-02-21T06:00:35.739Z,8.16
2023-02-21T06:05:26.725Z,8.08
2023-02-21T06:10:20.377Z,8.12
2023-02-21T06:15:10.661Z,8.04
2023-02-21T06:20:02.449Z,7.99
2023-02-21T06:24:52.258Z,7.95
2023-02-21T06:29:44.581Z,8.02
2023-02-21T06:34:36.681Z,7.87
2023-02-21T06:39:26.991Z,7.89
2023-02-21T06:44:16.873Z,7.92
2023-02-21T06:49:09.296Z,7.91
2023-02-21T06:54:00.501Z,7.95
2023-02-21T06:58:50.719Z,7.83
2023-02-21T07:03:43.378Z,7.88
2023-02-21T07:08:36.249Z,7.85
2023-02-21T07:13:26.623Z,7.90
2023-02-21T07:18:16.666Z,7.79
2023-02-21T07:23:09.981Z,7.39
2023-02-21T07:28:04.222Z,7.55
2023-02-21T07:32:57.504Z,7.92
2023-02-21T07:37:49.453Z,7.89
2023-02-21T07:42:43.784Z,7.87
2023-02-21T07:47:36.214Z,7.90
2023-02-21T07:52:28.517Z,7.83
2023-02-21T07:57:18.965Z,7.94
2023-02-21T08:02:08.805Z,7.96
2023-02-21T08:07:06.641Z,8.09
2023-02-21T08:12:07.702Z,8.02
2023-02-21T08:16:57.907Z,7.61
2023-02-21T08:21:48.614Z,7.95
2023-02-21T08:26:42.149Z,7.95
2023-02-21T08:31:32.068Z,7.99
2023-02-21T08:36:24.484Z,8.02
2023-02-21T08:41:16.500Z,8.10
2023-02-21T08:46:09.489Z,8.05
2023-02-21T08:51:02.896Z,8.15
2023-02-21T08:55:52.737Z,8.16
2023-02-21T09:00:45.966Z,8.17
2023-02-21T09:05:38.724Z,8.31
2023-02-21T09:10:34.175Z,8.39
2023-02-21T09:15:23.953Z,8.24
2023-02-21T09:20:14.994Z,7.98
2023-02-21T09:25:07.766Z,7.97
2023-02-21T09:29:57.882Z,8.02
2023-02-21T09:34:47.452Z,7.85
2023-02-21T09:39:40.628Z,7.97
2023-02-21T09:44:32.944Z,7.89
2023-02-21T09:49:26.223Z,7.91
2023-02-21T09:54:20.721Z,8.07
2023-02-21T09:59:15.920Z,8.15
2023-02-21T10:04:15.367Z,8.22
2023-02-21T10:09:09.918Z,8.29
2023-02-21T10:14:05.075Z,8.26
2023-02-21T10:19:01.925Z,8.28
2023-02-21T10:23:57.875Z,8.29
2023-02-21T10:28:47.861Z,8.18
2023-02-21T10:33:39.540Z,8.22
2023-02-21T10:38:29.481Z,8.26
2023-02-21T10:43:24.021Z,8.23
2023-02-21T10:48:15.637Z,8.27
2023-02-21T10:53:06.992Z,8.34
2023-02-21T10:57:58.424Z,8.26
2023-02-21T11:02:55.524Z,8.25
2023-02-21T11:07:59.614Z,8.26
2023-02-21T11:13:04.959Z,8.28
2023-02-21T11:18:11.959Z,8.40
2023-02-21T11:23:06.969Z,8.51
2023-02-21T11:28:09.884Z,8.58
2023-02-21T11:33:02.562Z,8.53
2023-02-21T11:37:56.544Z,8.42
2023-02-21T11:42:46.199Z,8.62
2023-02-21T11:47:39.831Z,8.60
2023-02-21T11:52:37.400Z,8.56
2023-02-21T11:57:36.141Z,8.69
2023-02-21T12:02:39.984Z,8.56
2023-02-21T12:07:36.359Z,8.57
2023-02-21T12:12:40.954Z,8.54
2023-02-21T12:17:46.809Z,8.58
2023-02-21T12:22:46.804Z,8.52
2023-02-21T12:27:41.088Z,8.56
2023-02-21T12:32:48.806Z,8.54
2023-02-21T12:37:47.665Z,8.63
2023-02-21T12:42:49.156Z,8.68
2023-02-21T12:47:43.103Z,8.79
2023-02-21T12:52:39.800Z,8.83
2023-02-21T12:57:35.270Z,8.76
2023-02-21T13:02:31.720Z,8.71
2023-02-21T13:07:28.768Z,8.69
2023-02-21T13:12:21.315Z,8.59
2023-02-21T13:17:21.280Z,8.67
2023-02-21T13:22:29.617Z,8.79
2023-02-21T13:27:59.164Z,8.75
2023-02-21T13:32:58.008Z,8.60
2023-02-21T13:37:49.634Z,8.57
2023-02-21T13:42:40.088Z,8.62
2023-02-21T13:47:30.266Z,8.58
2023-02-21T13:52:37.005Z,8.46
2023-02-21T13:57:33.663Z,8.36
2023-02-21T14:02:26.033Z,8.15
2023-02-21T14:07:15.778Z,8.07
2023-02-21T14:12:14.964Z,8.06
2023-02-21T14:17:06.293Z,8.32
2023-02-21T14:22:03.080Z,8.37
2023-02-21T14:26:53.829Z,8.32
2023-02-21T14:31:53.846Z,8.29
2023-02-21T14:36:44.685Z,8.13
2023-02-21T14:41:42.193Z,8.35
2023-02-21T14:46:58.530Z,8.25
2023-02-21T14:52:05.433Z,8.31
2023-02-21T14:57:08.626Z,8.26
2023-02-21T15:02:11.675Z,8.26
2023-02-21T15:07:15.388Z,8.26
2023-02-21T15:12:14.555Z,8.21
2023-02-21T15:17:15.905Z,8.19
2023-02-21T15:22:25.680Z,8.26
2023-02-21T15:27:17.077Z,8.22
2023-02-21T15:32:09.262Z,8.28
2023-02-21T15:37:04.386Z,8.21
2023-02-21T15:42:01.549Z,8.25
2023-02-21T15:46:54.675Z,8.27
2023-02-21T15:51:44.957Z,8.28
2023-02-21T15:56:35.770Z,8.23
2023-02-21T16:01:30.080Z,8.17
2023-02-21T16:06:28.452Z,8.18
2023-02-21T16:11:24.918Z,8.18
2023-02-21T16:16:17.156Z,8.13
2023-02-21T16:21:12.245Z,8.13
2023-02-21T16:26:03.717Z,8.11
2023-02-21T16:30:58.856Z,8.08
2023-02-21T16:36:05.875Z,8.05
2023-02-21T16:41:02.724Z,8.07
2023-02-21T16:45:58.692Z,7.82
2023-02-21T16:50:48.861Z,7.65
2023-02-21T16:55:40.508Z,7.70
2023-02-21T17:00:34.635Z,7.93
2023-02-21T17:05:25.198Z,7.96
2023-02-21T17:10:16.049Z,7.92
2023-02-21T17:15:06.361Z,7.90
2023-02-21T17:20:02.576Z,7.91
2023-02-21T17:24:53.273Z,7.83
2023-02-21T17:29:46.396Z,7.80
2023-02-21T17:34:51.474Z,7.81
2023-02-21T17:39:58.723Z,7.86
2023-02-21T17:44:51.627Z,7.87
2023-02-21T17:49:42.146Z,7.85
2023-02-21T17:54:33.880Z,7.89
2023-02-21T17:59:27.481Z,7.89
2023-02-21T18:04:19.290Z,7.95
2023-02-21T18:09:13.856Z,7.90
2023-02-21T18:14:04.193Z,7.90
2023-02-21T18:18:59.384Z,7.89
2023-02-21T18:23:56.959Z,7.94
2023-02-21T18:28:50.545Z,7.92
2023-02-21T18:33:41.343Z,7.86
2023-02-21T18:38:35.195Z,7.83
2023-02-21T18:43:38.281Z,7.88
2023-02-21T18:48:32.874Z,7.91
2023-02-21T18:53:32.210Z,7.81
2023-02-21T18:58:27.128Z,7.82
2023-02-21T19:03:19.098Z,7.73
2023-02-21T19:08:13.458Z,7.76
2023-02-21T19:13:05.701Z,7.78
2023-02-21T19:18:01.823Z,7.79
2023-02-21T19:22:56.747Z,7.77
2023-02-21T19:27:46.698Z,7.71
2023-02-21T19:32:38.095Z,7.69
2023-02-21T19:37:37.901Z,7.64
2023-02-21T19:42:31.800Z,7.69
2023-02-21T19:47:34.710Z,7.72
2023-02-21T19:52:29.517Z,7.61
2023-02-21T19:57:28.608Z,7.58
2023-02-21T20:02:20.020Z,7.35
2023-02-21T20:07:13.075Z,7.61
2023-02-21T20:12:03.207Z,7.62
2023-02-21T20:16:59.686Z,7.62
2023-02-21T20:21:53.014Z,7.54
2023-02-21T20:26:45.819Z,7.63
2023-02-21T20:31:38.840Z,7.54
2023-02-21T20:36:34.342Z,7.52
2023-02-21T20:41:24.189Z,7.48
2023-02-21T20:46:14.492Z,7.47
2023-02-21T20:51:06.546Z,7.46
2023-02-21T20:56:02.446Z,7.37
2023-02-21T21:00:54.644Z,7.45
2023-02-21T21:05:44.972Z,7.42
2023-02-21T21:10:37.541Z,7.34
2023-02-21T21:15:30.636Z,7.27
2023-02-21T21:20:26.648Z,7.25
2023-02-21T21:25:24.001Z,7.28
2023-02-21T21:30:23.661Z,7.35
2023-02-21T21:35:21.290Z,7.33
2023-02-21T21:40:18.701Z,7.33
2023-02-21T21:45:18.722Z,7.28
2023-02-21T21:50:16.194Z,7.23
2023-02-21T21:55:12.833Z,7.22
2023-02-21T22:00:02.665Z,7.24
2023-02-21T22:04:59.652Z,7.26
2023-02-21T22:09:52.281Z,7.16
2023-02-21T22:14:50.712Z,7.20
2023-02-21T22:19:45.845Z,7.13
2023-02-21T22:24:40.215Z,7.13
2023-02-21T22:29:30.620Z,7.08
2023-02-21T22:34:27.242Z,7.12
2023-02-21T22:39:17.912Z,7.07
2023-02-21T22:44:10.684Z,7.01
2023-02-21T22:49:10.296Z,6.93
2023-02-21T22:54:09.596Z,6.79
2023-02-21T22:59:01.398Z,6.78
2023-02-21T23:03:55.017Z,6.86
2023-02-21T23:08:50.238Z,6.88
2023-02-21T23:13:46.602Z,6.80
2023-02-21T23:18:36.425Z,6.43
2023-02-21T23:23:28.653Z,6.52
2023-02-21T23:28:23.257Z,6.26
2023-02-21T23:33:19.813Z,6.09
2023-02-21T23:38:15.767Z,6.16
2023-02-21T23:43:05.578Z,6.13
2023-02-21T23:47:59.456Z,6.31
2023-02-21T23:52:54.923Z,6.44
2023-02-21T23:57:45.898Z,6.51
